Time;durP1;ratioP1;P1;durP2;ratioP2;P2;SDS_P1;SDS_P2;PMS_P1;PMS_P2;Temp;Humidity;BMP_temperature;BMP_pressure;BME280_temperature;BME280_humidity;BME280_pressure;Samples;Min_cycle;Max_cycle;Signal;HPM_P1;HPM_P2
2021/07/21 00:00:48;;;;;;;7.05;4.60;;;23.80;63.70;;;;;;5053897;28;20071;-74
2021/07/21 00:03:14;;;;;;;7.63;4.45;;;24.00;64.50;;;;;;5070109;28;20128;-74
2021/07/21 00:05:41;;;;;;;11.75;4.53;;;24.00;65.10;;;;;;5053771;28;20074;-74
2021/07/21 00:08:10;;;;;;;11.43;4.43;;;24.40;72.90;;;;;;5070191;28;20051;-72
2021/07/21 00:10:37;;;;;;;6.95;3.65;;;;;;;;;;5070598;28;20155;-73
2021/07/21 00:16:02;;;;;;;5.70;3.80;;;;;;;;;;5070153;28;20044;-73
2021/07/21 00:18:35;;;;;;;5.15;3.22;;;;;;;;;;5070340;28;20072;-73
2021/07/21 00:21:01;;;;;;;5.38;3.78;;;;;;;;;;5084331;28;20047;-72
2021/07/21 00:23:28;;;;;;;8.57;4.15;;;;;;;;;;5095291;28;20547;-73
2021/07/21 00:25:56;;;;;;;7.90;3.97;;;;;;;;;;5096590;28;20032;-73
2021/07/21 00:28:25;;;;;;;5.97;3.90;;;;;;;;;;5078784;28;20392;-72
2021/07/21 00:30:51;;;;;;;5.75;3.00;;;24.10;62.10;;;;;;5096527;28;20071;-72
2021/07/21 00:33:18;;;;;;;6.72;2.60;;;24.10;63.10;;;;;;5096320;28;20068;-74
2021/07/21 00:35:44;;;;;;;7.70;3.28;;;24.20;63.60;;;;;;5095771;28;20504;-73
2021/07/21 00:38:11;;;;;;;4.00;2.88;;;24.10;62.10;;;;;;5095988;28;20038;-73
2021/07/21 00:40:38;;;;;;;7.10;3.45;;;24.20;66.60;;;;;;5096504;28;20069;-73
2021/07/21 00:43:04;;;;;;;7.95;3.40;;;25.00;73.50;;;;;;5078298;28;20024;-74
2021/07/21 00:45:31;;;;;;;4.85;3.30;;;24.30;76.40;;;;;;5077831;28;20036;-73
2021/07/21 00:47:58;;;;;;;5.10;3.65;;;23.50;82.70;;;;;;5095952;28;20127;-73
2021/07/21 00:50:24;;;;;;;7.50;4.05;;;;;;;;;;5095830;28;20039;-74
2021/07/21 00:52:52;;;;;;;8.00;4.05;;;24.10;72.30;;;;;;5077795;28;20170;-74
2021/07/21 00:55:26;;;;;;;6.90;4.15;;;23.90;64.10;;;;;;5061188;28;20050;-73
2021/07/21 00:57:56;;;;;;;10.20;5.05;;;23.90;64.60;;;;;;5077683;28;20123;-73
2021/07/21 01:00:22;;;;;;;8.02;4.53;;;23.80;65.70;;;;;;5095510;28;20040;-74
2021/07/21 01:02:53;;;;;;;9.43;5.15;;;23.80;66.10;;;;;;5077446;28;20563;-74
2021/07/21 01:05:24;;;;;;;8.52;4.97;;;23.80;66.10;;;;;;5076964;28;20094;-74
2021/07/21 01:07:51;;;;;;;7.25;5.15;;;23.80;66.20;;;;;;5077595;28;20056;-73
2021/07/21 01:10:21;;;;;;;8.10;4.78;;;23.70;66.40;;;;;;5095413;28;20028;-74
2021/07/21 01:13:13;;;;;;;7.07;4.50;;;23.70;65.80;;;;;;5095787;28;20039;-74
2021/07/21 01:15:58;;;;;;;6.38;4.25;;;23.70;66.60;;;;;;5094979;28;20043;-74
2021/07/21 01:18:33;;;;;;;6.32;4.32;;;23.60;66.10;;;;;;5077714;28;20043;-74
2021/07/21 01:21:21;;;;;;;8.48;4.57;;;23.60;65.80;;;;;;5077081;28;20032;-74
2021/07/21 01:23:48;;;;;;;7.93;4.15;;;23.70;65.90;;;;;;5016658;28;20041;-74
2021/07/21 01:26:28;;;;;;;6.95;4.53;;;23.70;65.60;;;;;;5000178;28;20069;-74
2021/07/21 01:28:56;;;;;;;7.40;3.60;;;23.80;65.60;;;;;;5033445;28;20041;-73
2021/07/21 01:31:31;;;;;;;10.02;4.22;;;;;;;;;;5016151;28;20482;-72
2021/07/21 01:33:58;;;;;;;8.25;3.78;;;;;;;;;;5016200;28;20048;-74
2021/07/21 01:36:33;;;;;;;6.20;3.75;;;23.80;64.00;;;;;;5032154;28;20053;-74
2021/07/21 01:39:04;;;;;;;5.57;3.58;;;24.00;92.90;;;;;;5032826;28;20096;-75
2021/07/21 01:41:43;;;;;;;6.18;3.50;;;24.00;93.50;;;;;;5016058;28;20072;-75
2021/07/21 01:44:25;;;;;;;9.35;3.17;;;24.00;72.40;;;;;;5015724;28;20029;-75
2021/07/21 01:46:56;;;;;;;4.97;3.30;;;24.00;63.90;;;;;;5032653;28;20033;-76
2021/07/21 01:49:27;;;;;;;6.22;3.40;;;23.90;64.70;;;;;;5015892;28;20049;-75
2021/07/21 01:51:58;;;;;;;6.78;3.25;;;24.00;67.00;;;;;;5032433;28;20513;-73
2021/07/21 01:54:25;;;;;;;3.33;3.00;;;24.10;68.10;;;;;;5038418;28;20095;-72
2021/07/21 01:57:12;;;;;;;5.68;3.20;;;;;;;;;;5094000;28;20056;-73
2021/07/21 01:59:53;;;;;;;6.07;3.35;;;24.30;62.60;;;;;;5076155;28;20040;-74
2021/07/21 02:02:26;;;;;;;6.13;3.22;;;24.30;63.70;;;;;;5076801;28;20131;-72
2021/07/21 02:05:04;;;;;;;5.13;2.70;;;;;;;;;;5094589;28;20032;-73
2021/07/21 02:07:32;;;;;;;6.90;3.15;;;24.10;62.10;;;;;;5076405;28;20405;-72
2021/07/21 02:09:59;;;;;;;7.28;3.40;;;24.10;63.30;;;;;;5075826;28;20485;-73
2021/07/21 02:12:42;;;;;;;6.53;3.75;;;24.10;63.60;;;;;;5076425;28;20036;-72
2021/07/21 02:15:11;;;;;;;4.13;3.15;;;24.00;62.90;;;;;;5076136;28;20040;-73
2021/07/21 02:17:39;;;;;;;9.55;3.63;;;24.00;63.00;;;;;;5075984;28;20066;-73
2021/07/21 02:20:09;;;;;;;8.80;3.53;;;23.90;63.20;;;;;;5075832;28;20073;-73
2021/07/21 02:22:57;;;;;;;9.57;3.53;;;23.80;63.10;;;;;;5075866;28;20032;-74
2021/07/21 02:25:53;;;;;;;8.05;3.30;;;23.80;66.60;;;;;;5093966;28;20566;-73
2021/07/21 02:28:23;;;;;;;6.30;3.40;;;;;;;;;;5059702;28;20403;-72
2021/07/21 02:30:56;;;;;;;8.00;3.58;;;24.00;91.20;;;;;;5075738;28;20035;-73
2021/07/21 02:33:30;;;;;;;5.97;3.45;;;;;;;;;;5093788;28;20044;-73
2021/07/21 02:35:58;;;;;;;8.80;3.70;;;24.00;62.40;;;;;;5075834;28;20423;-73
2021/07/21 02:38:26;;;;;;;6.13;3.00;;;24.20;62.70;;;;;;5075497;28;20040;-73
2021/07/21 02:40:57;;;;;;;9.35;3.50;;;24.40;62.90;;;;;;5075502;28;20422;-73
2021/07/21 02:43:27;;;;;;;6.07;3.63;;;;;;;;;;5075500;28;20042;-73
2021/07/21 02:45:59;;;;;;;6.03;3.58;;;24.60;67.60;;;;;;5075134;28;20024;-73
2021/07/21 02:48:28;;;;;;;6.22;3.55;;;;;;;;;;5075593;28;20480;-72
2021/07/21 02:50:59;;;;;;;7.25;3.47;;;24.70;61.20;;;;;;5075359;28;20024;-72
2021/07/21 02:53:37;;;;;;;6.20;3.70;;;;;;;;;;5075545;28;20135;-73
2021/07/21 02:56:22;;;;;;;9.30;3.35;;;;;;;;;;5093452;28;20511;-72
2021/07/21 02:59:01;;;;;;;5.60;3.60;;;24.90;60.20;;;;;;5075159;28;20040;-73
2021/07/21 03:01:29;;;;;;;6.05;3.00;;;25.10;60.80;;;;;;5093730;28;20043;-73
2021/07/21 03:03:57;;;;;;;7.30;3.00;;;25.10;60.20;;;;;;5093329;28;20089;-73
2021/07/21 03:06:26;;;;;;;5.68;2.65;;;;;;;;;;5075652;28;20534;-74
2021/07/21 03:09:01;;;;;;;5.95;2.70;;;;;;;;;;5059621;28;20032;-73
2021/07/21 03:11:55;;;;;;;6.05;2.83;;;;;;;;;;5075438;28;20040;-75
2021/07/21 03:14:24;;;;;;;6.97;3.25;;;;;;;;;;5093466;28;20038;-73
2021/07/21 03:16:57;;;;;;;4.60;2.72;;;25.00;59.90;;;;;;5074713;28;20062;-74
2021/07/21 03:19:43;;;;;;;4.72;2.85;;;;;;;;;;5088549;28;20495;-74
2021/07/21 03:22:19;;;;;;;5.75;2.97;;;25.00;62.00;;;;;;5095070;28;20043;-74
2021/07/21 03:24:54;;;;;;;7.80;2.92;;;24.80;61.20;;;;;;5094996;28;20063;-74
2021/07/21 03:27:28;;;;;;;4.75;2.55;;;24.90;60.80;;;;;;5094929;28;20038;-74
2021/07/21 03:30:15;;;;;;;3.53;2.88;;;25.10;70.40;;;;;;5081389;28;20075;-75
2021/07/21 03:32:59;;;;;;;4.80;2.55;;;25.30;84.90;;;;;;5079271;28;20035;-76
2021/07/21 03:35:29;;;;;;;6.18;2.75;;;;;;;;;;5085708;28;20055;-73
2021/07/21 03:37:59;;;;;;;5.72;2.60;;;;;;;;;;5075157;28;20131;-74
2021/07/21 03:40:28;;;;;;;4.80;2.42;;;24.70;68.20;;;;;;5083868;28;20047;-74
2021/07/21 03:43:18;;;;;;;4.82;2.60;;;;;;;;;;5081434;28;20055;-73
2021/07/21 03:45:58;;;;;;;6.80;3.00;;;24.90;59.30;;;;;;5094687;28;20120;-73
2021/07/21 03:48:27;;;;;;;5.28;2.38;;;;;;;;;;5094684;28;20035;-73
2021/07/21 03:51:11;;;;;;;3.70;2.10;;;24.70;59.90;;;;;;5094944;28;20089;-73
2021/07/21 03:53:56;;;;;;;5.95;2.50;;;24.90;60.50;;;;;;5113091;28;20057;-73
2021/07/21 03:56:26;;;;;;;3.42;2.35;;;24.90;60.20;;;;;;5089260;28;20126;-73
2021/07/21 03:59:01;;;;;;;3.65;2.50;;;24.90;60.20;;;;;;5092807;28;20075;-74
2021/07/21 04:01:27;;;;;;;7.85;2.60;;;25.00;60.20;;;;;;5099111;28;20043;-74
2021/07/21 04:03:57;;;;;;;2.63;2.00;;;25.10;59.80;;;;;;5098980;28;20122;-74
2021/07/21 04:06:32;;;;;;;2.50;2.10;;;25.20;59.80;;;;;;5092340;28;20036;-74
2021/07/21 04:09:28;;;;;;;5.63;2.30;;;25.30;59.70;;;;;;5093352;28;20051;-72
2021/07/21 04:11:59;;;;;;;3.45;2.40;;;25.50;59.70;;;;;;5117263;28;20063;-72
2021/07/21 04:14:47;;;;;;;3.67;2.22;;;25.70;59.40;;;;;;5098535;28;20124;-73
2021/07/21 04:17:19;;;;;;;4.45;1.85;;;25.90;59.40;;;;;;5075644;28;20128;-73
2021/07/21 04:19:47;;;;;;;2.45;1.90;;;25.90;58.70;;;;;;5103217;28;20040;-73
2021/07/21 04:22:14;;;;;;;3.10;2.13;;;26.00;58.90;;;;;;5082180;28;20039;-73
2021/07/21 04:24:47;;;;;;;5.32;1.92;;;26.10;58.90;;;;;;5078540;28;20032;-73
2021/07/21 04:27:15;;;;;;;3.17;1.92;;;26.10;58.50;;;;;;5096228;28;20032;-72
2021/07/21 04:29:51;;;;;;;3.30;2.00;;;26.10;58.20;;;;;;5077959;28;20032;-73
2021/07/21 04:32:21;;;;;;;5.38;1.95;;;26.10;58.40;;;;;;5096144;28;20071;-73
2021/07/21 04:34:50;;;;;;;2.75;1.95;;;26.20;58.00;;;;;;5080981;28;20039;-81
2021/07/21 04:37:18;;;;;;;6.50;2.20;;;26.20;57.90;;;;;;5086967;28;20032;-73
2021/07/21 04:40:05;;;;;;;7.53;2.10;;;26.30;58.20;;;;;;5077927;28;20122;-77
2021/07/21 04:42:42;;;;;;;5.40;2.05;;;26.40;58.30;;;;;;5079446;28;20085;-76
2021/07/21 04:45:11;;;;;;;6.22;2.05;;;26.40;58.00;;;;;;5061450;28;20452;-77
2021/07/21 04:47:39;;;;;;;5.13;1.90;;;26.30;58.20;;;;;;5077442;28;20404;-77
2021/07/21 04:50:10;;;;;;;2.95;1.70;;;26.30;57.80;;;;;;5060960;28;20032;-76
2021/07/21 04:52:38;;;;;;;8.57;2.00;;;26.40;57.60;;;;;;5061230;28;20445;-76
2021/07/21 04:55:07;;;;;;;6.05;1.90;;;26.50;57.80;;;;;;5095628;28;20044;-77
2021/07/21 04:57:33;;;;;;;4.15;1.83;;;26.60;57.20;;;;;;5095367;28;20040;-77
2021/07/21 05:00:07;;;;;;;3.50;1.85;;;26.70;56.70;;;;;;5077608;28;20036;-77
2021/07/21 05:02:57;;;;;;;4.10;2.20;;;26.70;56.40;;;;;;5075336;28;20075;-76
2021/07/21 05:05:24;;;;;;;2.00;1.80;;;26.60;56.10;;;;;;5077265;28;20450;-77
2021/07/21 05:07:58;;;;;;;4.32;1.90;;;26.80;56.40;;;;;;5076785;28;20040;-76
2021/07/21 05:10:25;;;;;;;3.67;1.88;;;27.00;56.60;;;;;;5095263;28;20520;-80
2021/07/21 05:12:51;;;;;;;4.57;1.75;;;26.90;55.80;;;;;;5077414;28;20484;-76
2021/07/21 05:15:23;;;;;;;3.17;1.60;;;27.00;55.70;;;;;;5077187;28;20035;-76
2021/07/21 05:17:52;;;;;;;6.10;1.60;;;27.00;56.10;;;;;;5061117;28;20089;-77
2021/07/21 05:20:34;;;;;;;11.80;1.83;;;27.10;55.80;;;;;;5077326;28;20123;-76
2021/07/21 05:23:07;;;;;;;3.03;1.52;;;27.20;55.60;;;;;;5095421;28;20036;-77
2021/07/21 05:25:46;;;;;;;2.30;1.85;;;27.30;55.70;;;;;;5076912;28;20039;-76
2021/07/21 05:28:44;;;;;;;2.28;1.48;;;27.30;55.20;;;;;;5050336;28;20528;-76
2021/07/21 05:31:15;;;;;;;3.38;1.83;;;27.40;55.20;;;;;;5077095;28;20036;-76
2021/07/21 05:34:00;;;;;;;2.22;1.70;;;27.40;55.00;;;;;;5095146;28;20108;-76
2021/07/21 05:36:30;;;;;;;5.32;1.77;;;27.60;55.60;;;;;;5060170;28;20087;-77
2021/07/21 05:38:56;;;;;;;4.22;1.50;;;27.50;54.30;;;;;;5095115;28;20408;-76
2021/07/21 05:41:24;;;;;;;4.25;1.52;;;27.60;55.00;;;;;;5076392;28;20031;-76
2021/07/21 05:43:50;;;;;;;2.63;1.70;;;27.60;54.90;;;;;;5060391;28;20032;-75
2021/07/21 05:46:16;;;;;;;3.00;1.80;;;27.80;55.00;;;;;;5059965;28;20035;-78
2021/07/21 05:48:43;;;;;;;4.93;2.00;;;27.90;55.00;;;;;;5076686;28;20028;-78
2021/07/21 05:51:28;;;;;;;4.85;1.98;;;28.00;55.00;;;;;;5095218;28;20047;-83
2021/07/21 05:54:09;;;;;;;2.40;1.50;;;28.10;55.10;;;;;;5076810;28;20480;-77
2021/07/21 05:56:39;;;;;;;1.73;1.58;;;28.20;54.60;;;;;;5077135;28;20043;-78
2021/07/21 05:59:05;;;;;;;4.82;1.90;;;28.40;54.80;;;;;;5076473;28;20032;-76
2021/07/21 06:01:33;;;;;;;7.05;1.63;;;28.40;54.00;;;;;;5094573;28;20024;-82
2021/07/21 06:04:02;;;;;;;4.25;1.92;;;28.60;56.20;;;;;;5076553;28;20126;-81
2021/07/21 06:06:34;;;;;;;8.52;1.48;;;28.70;54.80;;;;;;5094943;28;20032;-84
2021/07/21 06:09:00;;;;;;;2.55;1.60;;;28.90;54.40;;;;;;5094558;28;20048;-78
2021/07/21 06:11:33;;;;;;;4.68;1.85;;;29.10;53.90;;;;;;5076683;28;20373;-77
2021/07/21 06:14:00;;;;;;;2.97;1.55;;;29.30;53.60;;;;;;5076663;28;20188;-82
2021/07/21 06:16:29;;;;;;;1.90;1.60;;;29.50;53.80;;;;;;5076073;28;20500;-78
2021/07/21 06:18:55;;;;;;;3.88;1.50;;;29.60;54.20;;;;;;5094378;28;20040;-79
2021/07/21 06:21:22;;;;;;;3.33;1.90;;;29.60;51.90;;;;;;5093469;28;20040;-77
2021/07/21 06:24:14;;;;;;;8.27;1.65;;;29.60;51.70;;;;;;5062761;28;20085;-73
2021/07/21 06:26:41;;;;;;;4.32;2.05;;;29.50;51.90;;;;;;5059601;28;20032;-73
2021/07/21 06:29:26;;;;;;;4.75;1.40;;;29.40;51.90;;;;;;5094243;28;20080;-75
2021/07/21 06:31:56;;;;;;;4.47;1.70;;;29.30;52.30;;;;;;5075645;28;20438;-79
2021/07/21 06:34:23;;;;;;;3.67;1.40;;;29.30;53.10;;;;;;5093844;28;20044;-75
2021/07/21 06:36:49;;;;;;;3.33;1.77;;;29.40;53.00;;;;;;5075761;28;20197;-74
2021/07/21 06:39:15;;;;;;;3.10;1.58;;;29.30;51.60;;;;;;5093843;28;20039;-73
2021/07/21 06:41:44;;;;;;;3.47;1.35;;;29.30;51.80;;;;;;5093706;28;20036;-75
2021/07/21 06:44:11;;;;;;;2.75;1.60;;;29.30;51.50;;;;;;5075511;28;20028;-73
2021/07/21 06:46:57;;;;;;;5.88;1.60;;;29.30;50.80;;;;;;5051807;28;20492;-73
2021/07/21 06:49:26;;;;;;;3.33;1.10;;;29.20;51.30;;;;;;5075570;28;20055;-73
2021/07/21 06:51:52;;;;;;;2.38;0.90;;;29.20;51.30;;;;;;5093961;28;20043;-72
2021/07/21 06:54:24;;;;;;;4.63;1.33;;;29.40;51.30;;;;;;5075803;28;20051;-75
2021/07/21 06:57:10;;;;;;;5.00;1.70;;;29.60;52.00;;;;;;5093714;28;20144;-83
2021/07/21 06:59:46;;;;;;;1.98;1.63;;;29.70;51.30;;;;;;5080020;28;20085;-78
2021/07/21 07:02:34;;;;;;;3.33;1.48;;;29.70;50.90;;;;;;5097661;28;20508;-73
2021/07/21 07:05:19;;;;;;;4.25;1.35;;;29.70;50.60;;;;;;5113522;28;20062;-75
2021/07/21 07:08:03;;;;;;;2.45;1.27;;;29.60;50.80;;;;;;5113676;28;20131;-76
2021/07/21 07:10:49;;;;;;;1.98;1.42;;;29.50;50.10;;;;;;5113132;28;20078;-75
2021/07/21 07:13:15;;;;;;;3.25;1.90;;;29.60;50.60;;;;;;5113756;28;20036;-76
2021/07/21 07:15:42;;;;;;;3.47;1.80;;;29.60;50.80;;;;;;5113197;28;20043;-75
2021/07/21 07:18:14;;;;;;;3.67;1.75;;;29.60;51.50;;;;;;5095684;28;20468;-76
2021/07/21 07:20:44;;;;;;;7.07;1.52;;;29.60;51.00;;;;;;5113260;28;20503;-76
2021/07/21 07:23:10;;;;;;;3.90;1.83;;;29.50;50.80;;;;;;5078503;28;20130;-75
2021/07/21 07:25:37;;;;;;;2.45;1.40;;;29.50;50.60;;;;;;5094865;28;20028;-77
2021/07/21 07:28:03;;;;;;;2.35;1.77;;;29.50;51.30;;;;;;5113349;28;20058;-76
2021/07/21 07:30:29;;;;;;;2.83;2.28;;;29.50;50.90;;;;;;5095121;28;20044;-75
2021/07/21 07:32:55;;;;;;;3.85;1.50;;;29.50;51.20;;;;;;5087811;28;20027;-78
2021/07/21 07:35:21;;;;;;;5.95;1.77;;;29.60;50.60;;;;;;5081181;28;20056;-78
2021/07/21 07:37:47;;;;;;;11.25;1.90;;;29.50;50.90;;;;;;5101135;28;20043;-82
2021/07/21 07:40:14;;;;;;;3.88;1.50;;;29.40;50.50;;;;;;5098987;28;20520;-82
2021/07/21 07:42:40;;;;;;;4.68;2.08;;;29.40;50.60;;;;;;5101776;28;20062;-82
2021/07/21 07:45:08;;;;;;;2.67;1.50;;;29.40;50.80;;;;;;5112161;28;20444;-90
2021/07/21 07:47:34;;;;;;;2.60;1.60;;;29.50;51.50;;;;;;5076555;28;20040;-76
2021/07/21 07:50:00;;;;;;;6.03;1.58;;;29.50;49.30;;;;;;5095837;28;20126;-77
2021/07/21 07:52:26;;;;;;;5.70;2.15;;;29.40;50.80;;;;;;5111678;28;20039;-78
2021/07/21 07:54:53;;;;;;;3.75;1.80;;;29.50;50.70;;;;;;5105148;28;20430;-78
2021/07/21 07:57:19;;;;;;;4.75;1.85;;;29.40;50.30;;;;;;5090973;28;20043;-76
2021/07/21 07:59:45;;;;;;;6.47;1.77;;;29.40;50.20;;;;;;5104181;28;20032;-76
2021/07/21 08:02:11;;;;;;;4.82;2.35;;;29.40;51.30;;;;;;5095134;28;20081;-76
2021/07/21 08:04:37;;;;;;;6.80;1.92;;;29.30;50.40;;;;;;5111453;28;20028;-76
2021/07/21 08:07:03;;;;;;;6.00;1.80;;;29.20;51.10;;;;;;5111332;28;20110;-77
2021/07/21 08:09:30;;;;;;;4.57;1.60;;;29.10;52.20;;;;;;5111298;28;20032;-76
2021/07/21 08:11:58;;;;;;;6.35;1.90;;;29.10;51.60;;;;;;5111269;28;20034;-76
2021/07/21 08:14:25;;;;;;;5.85;2.10;;;29.10;53.40;;;;;;5098526;28;20093;-75
2021/07/21 08:16:52;;;;;;;7.15;1.95;;;29.10;52.30;;;;;;5072507;28;20035;-77
2021/07/21 08:19:20;;;;;;;3.72;1.73;;;29.10;51.40;;;;;;5073336;28;20520;-77
2021/07/21 08:21:46;;;;;;;6.57;2.17;;;29.10;51.90;;;;;;5092004;28;20040;-78
2021/07/21 08:24:14;;;;;;;5.50;2.08;;;29.10;51.30;;;;;;5106695;28;20564;-78
2021/07/21 08:26:39;;;;;;;3.58;1.70;;;29.10;51.70;;;;;;5076346;28;20131;-78
2021/07/21 08:29:07;;;;;;;6.75;1.77;;;29.10;53.10;;;;;;5075604;28;20046;-84
2021/07/21 08:31:34;;;;;;;5.53;2.10;;;29.10;52.30;;;;;;5083567;28;20028;-83
2021/07/21 08:34:01;;;;;;;5.95;2.33;;;29.00;52.30;;;;;;5055820;28;20059;-85
2021/07/21 08:36:31;;;;;;;5.00;2.03;;;29.00;53.50;;;;;;5072326;28;20048;-80
2021/07/21 08:38:57;;;;;;;4.40;2.20;;;29.00;52.60;;;;;;5090437;28;20047;-73
2021/07/21 08:41:26;;;;;;;5.38;1.98;;;29.00;52.90;;;;;;5091073;28;20408;-76
2021/07/21 08:43:52;;;;;;;3.03;1.60;;;29.00;50.90;;;;;;5058030;28;20032;-76
2021/07/21 08:46:18;;;;;;;8.02;1.80;;;28.90;50.80;;;;;;5094662;28;20494;-77
2021/07/21 08:48:44;;;;;;;4.28;1.75;;;28.80;51.60;;;;;;5094640;28;20035;-79
2021/07/21 08:51:11;;;;;;;6.18;1.60;;;28.80;51.50;;;;;;5094115;28;20073;-74
2021/07/21 08:53:37;;;;;;;3.20;1.85;;;28.70;52.90;;;;;;5093682;28;20127;-75
2021/07/21 08:56:04;;;;;;;3.72;1.65;;;28.70;52.50;;;;;;5093544;28;20105;-80
2021/07/21 08:58:31;;;;;;;3.03;1.83;;;28.70;53.90;;;;;;5076412;28;20089;-79
2021/07/21 09:00:57;;;;;;;5.72;1.73;;;28.70;55.40;;;;;;5094701;28;20044;-79
2021/07/21 09:03:23;;;;;;;4.28;2.13;;;28.70;52.70;;;;;;5097755;28;20036;-83
2021/07/21 09:05:53;;;;;;;3.08;1.85;;;28.70;54.70;;;;;;5096161;28;20084;-82
2021/07/21 09:08:20;;;;;;;3.85;1.95;;;28.60;52.80;;;;;;5099582;28;20044;-84
2021/07/21 09:10:48;;;;;;;2.70;1.83;;;28.40;51.00;;;;;;5094648;28;20039;-77
2021/07/21 09:13:15;;;;;;;4.25;2.10;;;28.40;51.30;;;;;;5097368;28;20027;-78
2021/07/21 09:15:43;;;;;;;4.38;1.80;;;28.40;51.70;;;;;;5103328;28;20036;-78
2021/07/21 09:18:11;;;;;;;2.42;2.00;;;28.40;53.60;;;;;;5114708;28;20077;-80
2021/07/21 09:21:08;;;;;;;3.45;1.90;;;28.40;51.70;;;;;;5079187;28;20038;-79
2021/07/21 09:23:36;;;;;;;4.68;2.15;;;28.40;53.10;;;;;;5113587;28;20043;-79
2021/07/21 09:26:03;;;;;;;2.15;1.95;;;28.40;53.30;;;;;;5102263;28;20054;-77
2021/07/21 09:28:40;;;;;;;2.50;1.77;;;28.50;54.60;;;;;;5093449;28;20036;-79
2021/07/21 09:31:07;;;;;;;2.08;1.90;;;28.40;54.00;;;;;;5110438;28;20039;-79
2021/07/21 09:33:34;;;;;;;10.13;2.28;;;28.50;53.50;;;;;;5113948;28;20043;-79
2021/07/21 09:36:00;;;;;;;3.08;1.83;;;28.40;54.60;;;;;;5073637;28;20044;-77
2021/07/21 09:38:28;;;;;;;3.28;1.98;;;28.40;53.30;;;;;;5091897;28;20028;-78
2021/07/21 09:41:01;;;;;;;3.72;1.90;;;28.40;52.90;;;;;;5093360;28;20040;-78
2021/07/21 09:43:30;;;;;;;2.55;1.83;;;28.40;53.50;;;;;;5097321;28;20122;-77
2021/07/21 09:46:06;;;;;;;3.20;1.98;;;28.30;53.30;;;;;;5080076;28;20491;-74
2021/07/21 09:48:39;;;;;;;3.33;1.90;;;28.30;52.70;;;;;;5075734;28;20650;-78
2021/07/21 09:51:06;;;;;;;4.78;2.10;;;28.20;53.90;;;;;;5095962;28;20035;-78
2021/07/21 09:53:37;;;;;;;5.32;2.00;;;28.20;52.70;;;;;;5095553;28;20039;-79
2021/07/21 09:56:04;;;;;;;5.05;2.40;;;28.10;52.30;;;;;;5095600;28;20125;-79
2021/07/21 09:58:34;;;;;;;4.68;2.05;;;28.10;54.50;;;;;;5095444;28;20031;-78
2021/07/21 10:01:00;;;;;;;3.63;1.90;;;28.10;54.60;;;;;;5093067;28;20039;-76
2021/07/21 10:03:29;;;;;;;2.67;1.92;;;28.20;52.80;;;;;;5093927;28;20028;-74
2021/07/21 10:06:07;;;;;;;4.30;1.85;;;28.20;52.80;;;;;;5074865;28;20048;-75
2021/07/21 10:08:43;;;;;;;3.60;2.20;;;28.20;52.40;;;;;;5088445;28;20044;-75
2021/07/21 10:11:26;;;;;;;3.55;1.90;;;28.10;51.80;;;;;;5095085;28;20035;-76
2021/07/21 10:13:55;;;;;;;3.35;1.92;;;28.20;54.10;;;;;;5091952;28;20047;-74
2021/07/21 10:16:44;;;;;;;3.95;1.92;;;28.20;54.40;;;;;;5074025;28;20044;-74
2021/07/21 10:19:25;;;;;;;6.35;2.20;;;28.20;53.90;;;;;;5075036;28;20031;-74
2021/07/21 10:22:00;;;;;;;3.08;1.92;;;28.20;54.10;;;;;;5076263;28;20058;-76
2021/07/21 10:24:32;;;;;;;3.15;2.15;;;28.30;54.60;;;;;;5110800;28;20035;-74
2021/07/21 10:26:58;;;;;;;9.05;2.20;;;28.30;54.30;;;;;;5093361;28;20059;-77
2021/07/21 10:29:25;;;;;;;6.13;2.33;;;28.30;53.50;;;;;;5108772;28;20024;-77
2021/07/21 10:31:51;;;;;;;5.90;2.30;;;28.20;53.80;;;;;;5092165;28;20119;-77
2021/07/21 10:34:19;;;;;;;4.90;2.28;;;28.30;55.40;;;;;;5097867;28;20134;-74
2021/07/21 10:36:47;;;;;;;6.75;3.00;;;28.30;53.70;;;;;;5101930;28;20097;-74
2021/07/21 10:39:16;;;;;;;2.25;2.05;;;28.20;55.70;;;;;;5092028;28;20071;-76
2021/07/21 10:41:44;;;;;;;3.20;2.03;;;28.30;55.70;;;;;;5057695;28;20036;-76
2021/07/21 10:44:12;;;;;;;6.45;2.20;;;28.30;55.50;;;;;;5074387;28;20032;-77
2021/07/21 10:46:46;;;;;;;2.10;2.00;;;28.30;53.00;;;;;;5108164;28;20046;-76
2021/07/21 10:49:38;;;;;;;6.43;1.93;;;28.30;53.50;;;;;;5103956;28;20061;-77
2021/07/21 11:00:13;;;;;;;4.72;1.80;;;28.30;51.60;;;;;;5084263;28;20058;-72
2021/07/21 11:02:40;;;;;;;4.65;1.83;;;28.20;51.90;;;;;;5112059;28;20039;-73
2021/07/21 11:05:09;;;;;;;3.75;1.92;;;28.20;53.60;;;;;;5112097;28;20050;-73
2021/07/21 11:07:52;;;;;;;3.20;1.95;;;28.20;52.30;;;;;;5093378;28;20610;-73
2021/07/21 11:10:37;;;;;;;3.03;1.70;;;28.20;52.50;;;;;;5112121;28;20046;-76
2021/07/21 11:13:06;;;;;;;4.30;2.50;;;28.20;51.50;;;;;;5075797;28;20078;-79
2021/07/21 11:15:52;;;;;;;10.80;3.58;;;28.20;51.30;;;;;;5091014;28;20109;-79
2021/07/21 11:18:24;;;;;;;7.38;2.65;;;28.20;52.50;;;;;;5073056;28;20040;-79
2021/07/21 11:21:20;;;;;;;3.67;2.83;;;28.20;50.20;;;;;;5102288;28;20039;-77
2021/07/21 11:23:47;;;;;;;;;;;28.20;49.90;;;;;;5093423;28;20195;-75
2021/07/21 11:26:33;;;;;;;7.75;3.30;;;28.20;49.10;;;;;;5090560;28;19963;-74
2021/07/21 11:29:25;;;;;;;11.43;4.10;;;28.20;49.90;;;;;;5090873;28;20048;-78
2021/07/21 11:31:54;;;;;;;12.25;4.40;;;28.10;50.90;;;;;;5091214;28;20118;-81
2021/07/21 11:34:34;;;;;;;9.85;3.30;;;28.20;52.70;;;;;;5094955;28;20050;-83
2021/07/21 11:37:18;;;;;;;5.93;2.90;;;28.20;52.30;;;;;;5091473;28;20048;-76
2021/07/21 11:39:52;;;;;;;3.63;2.40;;;28.20;51.50;;;;;;5090272;28;20127;-75
2021/07/21 11:42:26;;;;;;;4.90;2.53;;;28.20;50.00;;;;;;5097664;28;20027;-74
2021/07/21 11:45:03;;;;;;;5.70;2.60;;;28.10;50.10;;;;;;5093347;28;20409;-75
2021/07/21 11:47:38;;;;;;;3.35;2.40;;;28.10;49.40;;;;;;5111693;28;20051;-76
2021/07/21 11:50:12;;;;;;;2.92;2.03;;;28.10;49.50;;;;;;5111832;28;20080;-81
2021/07/21 11:52:38;;;;;;;7.45;2.58;;;28.10;49.10;;;;;;5093349;28;20495;-81
2021/07/21 11:55:05;;;;;;;5.43;2.28;;;28.10;49.50;;;;;;5111461;28;20035;-80
2021/07/21 11:57:32;;;;;;;5.53;2.25;;;28.10;49.60;;;;;;5112540;28;20067;-79
2021/07/21 12:00:00;;;;;;;4.68;2.40;;;28.10;49.50;;;;;;5111883;28;20498;-82
2021/07/21 12:02:27;;;;;;;2.75;2.05;;;28.10;49.90;;;;;;5076134;28;20054;-78
2021/07/21 12:04:58;;;;;;;4.28;2.63;;;28.20;50.50;;;;;;5091427;28;20464;-84
2021/07/21 12:07:35;;;;;;;4.35;2.42;;;28.20;49.30;;;;;;5090814;28;20043;-89
2021/07/21 12:10:16;;;;;;;3.35;2.70;;;28.20;49.50;;;;;;5073232;28;20495;-82
2021/07/21 12:12:44;;;;;;;4.85;2.35;;;28.20;49.30;;;;;;5056684;28;20400;-79
2021/07/21 12:15:14;;;;;;;5.25;2.50;;;28.30;49.00;;;;;;5092246;28;20092;-84
2021/07/21 12:17:41;;;;;;;4.63;2.63;;;28.10;48.20;;;;;;5098046;28;20040;-84
2021/07/21 12:20:10;;;;;;;2.50;2.30;;;28.20;49.30;;;;;;5083347;28;20040;-88
2021/07/21 12:22:41;;;;;;;2.83;2.35;;;28.20;49.40;;;;;;5114980;28;20046;-82
2021/07/21 12:25:10;;;;;;;2.70;2.20;;;28.20;49.20;;;;;;5110294;28;20028;-80
2021/07/21 12:27:42;;;;;;;6.78;2.30;;;28.20;48.60;;;;;;5096963;28;20440;-80
2021/07/21 12:30:18;;;;;;;4.90;2.50;;;28.20;48.60;;;;;;5082965;28;20130;-81
2021/07/21 12:32:46;;;;;;;2.70;2.10;;;28.20;48.20;;;;;;5095583;28;20055;-82
2021/07/21 12:35:14;;;;;;;2.35;2.15;;;28.10;48.10;;;;;;5077430;28;20067;-76
2021/07/21 12:37:49;;;;;;;3.95;2.22;;;28.00;47.00;;;;;;5077643;28;20412;-80
2021/07/21 12:40:18;;;;;;;2.97;1.98;;;28.10;46.70;;;;;;5077913;28;20119;-78
2021/07/21 12:42:45;;;;;;;2.58;2.35;;;28.10;47.30;;;;;;5095015;28;20043;-81
2021/07/21 12:45:17;;;;;;;3.70;2.20;;;28.20;46.90;;;;;;5076229;28;20036;-77
2021/07/21 12:47:47;;;;;;;4.72;2.05;;;28.20;47.00;;;;;;5094359;28;20051;-79
2021/07/21 12:50:22;;;;;;;3.85;1.45;;;28.10;46.70;;;;;;5076677;28;20472;-77
2021/07/21 12:52:52;;;;;;;2.65;2.10;;;28.10;46.90;;;;;;5094423;28;20101;-82
2021/07/21 12:55:39;;;;;;;5.22;2.08;;;28.20;47.20;;;;;;5094382;28;20040;-76
2021/07/21 12:58:11;;;;;;;7.35;2.05;;;28.20;47.60;;;;;;5099589;28;20075;-75
2021/07/21 13:00:50;;;;;;;2.55;2.33;;;28.20;47.60;;;;;;5080771;28;20036;-74
2021/07/21 13:03:18;;;;;;;4.80;2.58;;;28.20;47.70;;;;;;5097354;28;20035;-74
2021/07/21 13:05:46;;;;;;;3.70;2.55;;;28.20;47.90;;;;;;5115583;28;20039;-74
2021/07/21 13:08:26;;;;;;;3.15;2.22;;;28.20;49.00;;;;;;5116223;28;20062;-74
2021/07/21 13:11:10;;;;;;;4.25;2.15;;;28.20;48.70;;;;;;5097718;28;20035;-76
2021/07/21 13:13:37;;;;;;;5.78;2.38;;;28.20;47.30;;;;;;5097644;28;20035;-74
2021/07/21 13:16:11;;;;;;;3.03;2.40;;;28.10;48.90;;;;;;5097686;28;20131;-75
2021/07/21 13:18:37;;;;;;;3.47;2.10;;;28.10;48.50;;;;;;5097886;28;20038;-76
2021/07/21 13:21:18;;;;;;;5.15;2.53;;;28.10;50.40;;;;;;5097308;28;20039;-73
2021/07/21 13:23:44;;;;;;;5.00;2.40;;;28.10;51.00;;;;;;5115555;28;20126;-74
2021/07/21 13:26:11;;;;;;;3.63;2.30;;;28.20;50.90;;;;;;5115492;28;20539;-74
2021/07/21 13:28:46;;;;;;;3.90;2.65;;;28.20;51.40;;;;;;5096826;28;20028;-73
2021/07/21 13:31:13;;;;;;;4.75;2.90;;;28.20;48.90;;;;;;5096887;28;20036;-73